Current | Forecast
Updated: 10:00 PM JST on September 22, 2017
Observed at Miho AB, Japan
Temperature 68°F
Humidity 83%
Dew Point 63°F
Wind South at 6 mph
Pressure 29.89 in (Steady)
Conditions Scattered Clouds
Visibility 6.2 miles
UV 0 out of 16
Clouds (FEW) : 4000 ft
Scattered Clouds (SCT) : 5000 ft
Yesterday's Maximum 77°F
Yesterday's Minimum 59°F approx.
Yesterday's Cooling Degree Days 3 approx.
Sunrise5:55 AM JST
Sunset6:03 PM JST
Moon Rise8:33 AM JST
Moon Set8:01 PM JST
Moon PhaseMoon Phase
Waxing Crescent
Raw METARMETAR RJOH 221300Z 19005KT 9999 FEW040 SCT050 20/17 Q1012


Monday
. High: 68° F.
Tuesday
. High: 66° F.
Wednesday
. High: 64° F.
Thursday
. High: 65° F.
Friday
. High: 66° F.
Saturday
. High: 66° F.
Sunday
. High: 66° F.
Monday
. High: 66° F.

Units: English | Metric

Find the Weather for any City, State or Zipcode, or Country:

U.S. State List | Severe Weather | Tropical Storms | Ski Conditions
United States | Canada | Central America | South America | Asia | Europe | Australia | Africa | Islands

Weather Underground

© Copyright 2017
The Weather Company, LLC